sensor_id;sensor_type;location;lat;lon;timestamp;temperature;humidity
44367;DHT22;30086;57.660;12.000;2022-07-23T00:00:07;17.10;99.90
44367;DHT22;30086;57.660;12.000;2022-07-23T00:02:33;16.80;99.90
44367;DHT22;30086;57.660;12.000;2022-07-23T00:04:59;16.80;99.90
44367;DHT22;30086;57.660;12.000;2022-07-23T00:07:25;16.90;99.90
44367;DHT22;30086;57.660;12.000;2022-07-23T00:09:50;17.00;99.90
44367;DHT22;30086;57.660;12.000;2022-07-23T00:12:16;17.00;99.90
44367;DHT22;30086;57.660;12.000;2022-07-23T00:14:42;17.00;99.90
44367;DHT22;30086;57.660;12.000;2022-07-23T00:17:07;17.00;99.90
44367;DHT22;30086;57.660;12.000;2022-07-23T00:19:33;17.10;99.90
44367;DHT22;30086;57.660;12.000;2022-07-23T00:21:59;17.10;99.90
44367;DHT22;30086;57.660;12.000;2022-07-23T00:24:24;17.20;99.90
44367;DHT22;30086;57.660;12.000;2022-07-23T00:26:50;17.00;99.90
44367;DHT22;30086;57.660;12.000;2022-07-23T00:29:16;17.00;99.90
44367;DHT22;30086;57.660;12.000;2022-07-23T00:31:41;17.10;99.90
44367;DHT22;30086;57.660;12.000;2022-07-23T00:34:07;16.80;99.90
44367;DHT22;30086;57.660;12.000;2022-07-23T00:36:33;17.30;99.90
44367;DHT22;30086;57.660;12.000;2022-07-23T00:38:58;17.20;99.90
44367;DHT22;30086;57.660;12.000;2022-07-23T00:41:24;17.30;99.90
44367;DHT22;30086;57.660;12.000;2022-07-23T00:43:50;17.20;99.90
44367;DHT22;30086;57.660;12.000;2022-07-23T00:46:22;17.20;99.90
44367;DHT22;30086;57.660;12.000;2022-07-23T00:48:48;17.20;99.90
44367;DHT22;30086;57.660;12.000;2022-07-23T00:51:17;17.20;99.90
44367;DHT22;30086;57.660;12.000;2022-07-23T00:53:44;17.30;99.90
44367;DHT22;30086;57.660;12.000;2022-07-23T00:56:10;17.30;99.90
44367;DHT22;30086;57.660;12.000;2022-07-23T00:58:36;17.30;99.90
44367;DHT22;30086;57.660;12.000;2022-07-23T01:01:03;17.10;99.90
44367;DHT22;30086;57.660;12.000;2022-07-23T01:03:29;17.20;99.90
44367;DHT22;30086;57.660;12.000;2022-07-23T01:05:54;17.30;99.90
44367;DHT22;30086;57.660;12.000;2022-07-23T01:08:20;17.20;99.90
44367;DHT22;30086;57.660;12.000;2022-07-23T01:10:47;17.20;99.90
44367;DHT22;30086;57.660;12.000;2022-07-23T01:13:13;17.20;99.90
44367;DHT22;30086;57.660;12.000;2022-07-23T01:15:39;17.30;99.90
44367;DHT22;30086;57.660;12.000;2022-07-23T01:18:06;17.20;99.90
44367;DHT22;30086;57.660;12.000;2022-07-23T01:20:33;17.20;99.90
44367;DHT22;30086;57.660;12.000;2022-07-23T01:23:00;17.30;99.90
44367;DHT22;30086;57.660;12.000;2022-07-23T01:25:26;17.30;99.90
44367;DHT22;30086;57.660;12.000;2022-07-23T01:27:52;17.30;99.90
44367;DHT22;30086;57.660;12.000;2022-07-23T01:30:18;17.30;99.90
44367;DHT22;30086;57.660;12.000;2022-07-23T01:32:45;17.40;99.90
44367;DHT22;30086;57.660;12.000;2022-07-23T01:35:10;17.40;99.90
44367;DHT22;30086;57.660;12.000;2022-07-23T01:37:42;17.20;99.90
44367;DHT22;30086;57.660;12.000;2022-07-23T01:40:08;17.20;99.90
44367;DHT22;30086;57.660;12.000;2022-07-23T01:42:34;17.20;99.90
44367;DHT22;30086;57.660;12.000;2022-07-23T01:45:02;17.10;99.90
44367;DHT22;30086;57.660;12.000;2022-07-23T01:47:28;17.10;99.90
44367;DHT22;30086;57.660;12.000;2022-07-23T01:49:54;17.10;99.90
44367;DHT22;30086;57.660;12.000;2022-07-23T01:52:21;17.10;99.90
44367;DHT22;30086;57.660;12.000;2022-07-23T01:54:47;17.10;99.90
44367;DHT22;30086;57.660;12.000;2022-07-23T01:57:12;17.00;99.90
44367;DHT22;30086;57.660;12.000;2022-07-23T01:59:38;17.00;99.90
44367;DHT22;30086;57.660;12.000;2022-07-23T02:02:05;17.00;99.90
44367;DHT22;30086;57.660;12.000;2022-07-23T02:04:31;17.00;99.90
44367;DHT22;30086;57.660;12.000;2022-07-23T02:06:58;17.00;99.90
44367;DHT22;30086;57.660;12.000;2022-07-23T02:09:25;16.80;99.90
44367;DHT22;30086;57.660;12.000;2022-07-23T02:11:51;16.60;99.90
44367;DHT22;30086;57.660;12.000;2022-07-23T02:14:16;16.90;99.90
44367;DHT22;30086;57.660;12.000;2022-07-23T02:16:42;16.80;99.90
44367;DHT22;30086;57.660;12.000;2022-07-23T02:19:08;16.80;99.90
44367;DHT22;30086;57.660;12.000;2022-07-23T02:21:33;16.90;99.90
44367;DHT22;30086;57.660;12.000;2022-07-23T02:23:59;16.90;99.90
44367;DHT22;30086;57.660;12.000;2022-07-23T02:26:24;16.70;99.90
44367;DHT22;30086;57.660;12.000;2022-07-23T02:28:50;16.70;99.90
44367;DHT22;30086;57.660;12.000;2022-07-23T02:31:18;16.70;99.90
44367;DHT22;30086;57.660;12.000;2022-07-23T02:33:44;16.70;99.90
44367;DHT22;30086;57.660;12.000;2022-07-23T02:36:10;16.70;99.90
44367;DHT22;30086;57.660;12.000;2022-07-23T02:38:35;16.60;99.90
44367;DHT22;30086;57.660;12.000;2022-07-23T02:41:01;16.70;99.90
44367;DHT22;30086;57.660;12.000;2022-07-23T02:43:27;16.70;99.90
44367;DHT22;30086;57.660;12.000;2022-07-23T02:45:52;16.70;99.90
44367;DHT22;30086;57.660;12.000;2022-07-23T02:48:19;16.60;99.90
44367;DHT22;30086;57.660;12.000;2022-07-23T02:50:46;16.60;99.90
44367;DHT22;30086;57.660;12.000;2022-07-23T02:53:20;16.60;99.90
44367;DHT22;30086;57.660;12.000;2022-07-23T02:55:45;16.60;99.90
44367;DHT22;30086;57.660;12.000;2022-07-23T02:58:11;16.60;99.90
44367;DHT22;30086;57.660;12.000;2022-07-23T03:00:37;16.60;99.90
44367;DHT22;30086;57.660;12.000;2022-07-23T03:03:03;16.60;99.90
44367;DHT22;30086;57.660;12.000;2022-07-23T03:05:28;16.50;99.90
44367;DHT22;30086;57.660;12.000;2022-07-23T03:07:54;16.50;99.90
44367;DHT22;30086;57.660;12.000;2022-07-23T03:10:20;16.50;99.90
44367;DHT22;30086;57.660;12.000;2022-07-23T03:12:45;16.50;99.90
44367;DHT22;30086;57.660;12.000;2022-07-23T03:15:12;16.30;99.90
44367;DHT22;30086;57.660;12.000;2022-07-23T03:17:38;16.60;99.90
44367;DHT22;30086;57.660;12.000;2022-07-23T03:20:04;16.60;99.90
44367;DHT22;30086;57.660;12.000;2022-07-23T03:22:30;16.60;99.90
44367;DHT22;30086;57.660;12.000;2022-07-23T03:24:56;16.70;99.90
44367;DHT22;30086;57.660;12.000;2022-07-23T03:27:27;16.60;99.90
44367;DHT22;30086;57.660;12.000;2022-07-23T03:29:54;16.50;99.90
44367;DHT22;30086;57.660;12.000;2022-07-23T03:32:20;16.50;99.90
44367;DHT22;30086;57.660;12.000;2022-07-23T03:34:47;16.50;99.90
44367;DHT22;30086;57.660;12.000;2022-07-23T03:37:13;16.50;99.90
44367;DHT22;30086;57.660;12.000;2022-07-23T03:39:39;16.60;99.90
44367;DHT22;30086;57.660;12.000;2022-07-23T03:42:06;16.60;99.90
44367;DHT22;30086;57.660;12.000;2022-07-23T03:44:32;16.70;99.90
44367;DHT22;30086;57.660;12.000;2022-07-23T03:46:58;16.70;99.90
44367;DHT22;30086;57.660;12.000;2022-07-23T03:49:24;16.70;99.90
44367;DHT22;30086;57.660;12.000;2022-07-23T03:51:50;16.70;99.90
44367;DHT22;30086;57.660;12.000;2022-07-23T03:54:16;16.70;99.90
44367;DHT22;30086;57.660;12.000;2022-07-23T03:56:42;16.70;99.90
44367;DHT22;30086;57.660;12.000;2022-07-23T03:59:08;16.70;99.90
44367;DHT22;30086;57.660;12.000;2022-07-23T04:01:34;16.70;99.90
44367;DHT22;30086;57.660;12.000;2022-07-23T04:04:00;16.80;99.90
44367;DHT22;30086;57.660;12.000;2022-07-23T04:06:26;16.80;99.90
44367;DHT22;30086;57.660;12.000;2022-07-23T04:08:52;16.70;99.90
44367;DHT22;30086;57.660;12.000;2022-07-23T04:11:18;16.60;99.90
44367;DHT22;30086;57.660;12.000;2022-07-23T04:13:43;16.60;99.90
44367;DHT22;30086;57.660;12.000;2022-07-23T04:16:09;16.70;99.90
44367;DHT22;30086;57.660;12.000;2022-07-23T04:18:35;16.60;99.90
44367;DHT22;30086;57.660;12.000;2022-07-23T04:21:00;16.80;99.90
44367;DHT22;30086;57.660;12.000;2022-07-23T04:23:27;16.70;99.90
44367;DHT22;30086;57.660;12.000;2022-07-23T04:25:52;16.70;99.90
44367;DHT22;30086;57.660;12.000;2022-07-23T04:28:18;16.70;99.90
44367;DHT22;30086;57.660;12.000;2022-07-23T04:30:44;16.70;99.90
44367;DHT22;30086;57.660;12.000;2022-07-23T04:33:09;16.70;99.90
44367;DHT22;30086;57.660;12.000;2022-07-23T04:35:35;16.80;99.90
44367;DHT22;30086;57.660;12.000;2022-07-23T04:38:02;16.80;99.90
44367;DHT22;30086;57.660;12.000;2022-07-23T04:40:28;16.90;99.90
44367;DHT22;30086;57.660;12.000;2022-07-23T04:42:54;17.00;99.90
44367;DHT22;30086;57.660;12.000;2022-07-23T04:45:20;16.90;99.90
44367;DHT22;30086;57.660;12.000;2022-07-23T04:47:46;16.90;99.90
44367;DHT22;30086;57.660;12.000;2022-07-23T04:50:12;16.70;99.90
44367;DHT22;30086;57.660;12.000;2022-07-23T04:52:38;17.00;99.90
44367;DHT22;30086;57.660;12.000;2022-07-23T04:55:04;17.20;99.90
44367;DHT22;30086;57.660;12.000;2022-07-23T04:57:30;17.20;99.90
44367;DHT22;30086;57.660;12.000;2022-07-23T04:59:55;17.30;99.90
44367;DHT22;30086;57.660;12.000;2022-07-23T05:02:21;17.40;99.90
44367;DHT22;30086;57.660;12.000;2022-07-23T05:04:47;17.20;1.00
44367;DHT22;30086;57.660;12.000;2022-07-23T05:07:12;17.00;1.00
44367;DHT22;30086;57.660;12.000;2022-07-23T05:09:38;17.20;16.30
44367;DHT22;30086;57.660;12.000;2022-07-23T05:12:04;17.20;99.90
44367;DHT22;30086;57.660;12.000;2022-07-23T05:14:30;17.10;99.90
44367;DHT22;30086;57.660;12.000;2022-07-23T05:16:55;17.00;1.00
44367;DHT22;30086;57.660;12.000;2022-07-23T05:19:21;17.00;1.00
44367;DHT22;30086;57.660;12.000;2022-07-23T05:21:47;17.00;1.00
44367;DHT22;30086;57.660;12.000;2022-07-23T05:24:13;17.10;1.00
44367;DHT22;30086;57.660;12.000;2022-07-23T05:26:38;17.20;21.00
44367;DHT22;30086;57.660;12.000;2022-07-23T05:29:04;17.20;99.90
44367;DHT22;30086;57.660;12.000;2022-07-23T05:31:29;17.30;99.90
44367;DHT22;30086;57.660;12.000;2022-07-23T05:33:55;17.10;1.00
44367;DHT22;30086;57.660;12.000;2022-07-23T05:36:21;17.20;1.00
44367;DHT22;30086;57.660;12.000;2022-07-23T05:38:47;17.20;99.90
44367;DHT22;30086;57.660;12.000;2022-07-23T05:41:13;17.00;1.00
44367;DHT22;30086;57.660;12.000;2022-07-23T05:43:38;17.40;1.00
44367;DHT22;30086;57.660;12.000;2022-07-23T05:46:04;17.30;1.00
44367;DHT22;30086;57.660;12.000;2022-07-23T05:48:30;17.10;99.90
44367;DHT22;30086;57.660;12.000;2022-07-23T05:50:56;17.20;99.90
44367;DHT22;30086;57.660;12.000;2022-07-23T05:53:21;17.20;99.90
44367;DHT22;30086;57.660;12.000;2022-07-23T05:55:47;17.20;1.00
44367;DHT22;30086;57.660;12.000;2022-07-23T05:58:13;17.20;47.30
44367;DHT22;30086;57.660;12.000;2022-07-23T06:00:38;17.10;99.90
44367;DHT22;30086;57.660;12.000;2022-07-23T06:03:04;17.20;1.00
44367;DHT22;30086;57.660;12.000;2022-07-23T06:05:30;17.40;1.00
44367;DHT22;30086;57.660;12.000;2022-07-23T06:07:55;17.40;99.90
44367;DHT22;30086;57.660;12.000;2022-07-23T06:10:21;17.40;1.00
44367;DHT22;30086;57.660;12.000;2022-07-23T06:12:47;17.40;1.00
44367;DHT22;30086;57.660;12.000;2022-07-23T06:15:13;17.30;99.90
44367;DHT22;30086;57.660;12.000;2022-07-23T06:17:39;17.00;1.00
44367;DHT22;30086;57.660;12.000;2022-07-23T06:20:06;17.10;1.00
44367;DHT22;30086;57.660;12.000;2022-07-23T06:22:34;17.20;1.00
44367;DHT22;30086;57.660;12.000;2022-07-23T06:24:59;17.20;1.00
44367;DHT22;30086;57.660;12.000;2022-07-23T06:27:25;17.00;1.00
44367;DHT22;30086;57.660;12.000;2022-07-23T06:29:51;17.00;73.20
44367;DHT22;30086;57.660;12.000;2022-07-23T06:32:16;17.20;1.00
44367;DHT22;30086;57.660;12.000;2022-07-23T06:34:42;17.10;1.00
44367;DHT22;30086;57.660;12.000;2022-07-23T06:37:08;17.20;99.90
44367;DHT22;30086;57.660;12.000;2022-07-23T06:39:35;17.20;99.90
44367;DHT22;30086;57.660;12.000;2022-07-23T06:42:02;17.10;30.40
44367;DHT22;30086;57.660;12.000;2022-07-23T06:44:28;17.30;1.00
44367;DHT22;30086;57.660;12.000;2022-07-23T06:46:54;17.40;1.00
44367;DHT22;30086;57.660;12.000;2022-07-23T06:49:19;17.30;99.90
44367;DHT22;30086;57.660;12.000;2022-07-23T06:51:45;17.40;1.00
44367;DHT22;30086;57.660;12.000;2022-07-23T06:54:13;17.40;1.00
44367;DHT22;30086;57.660;12.000;2022-07-23T06:56:41;17.40;99.90
44367;DHT22;30086;57.660;12.000;2022-07-23T06:59:08;17.60;1.00
44367;DHT22;30086;57.660;12.000;2022-07-23T07:01:35;17.50;99.90
44367;DHT22;30086;57.660;12.000;2022-07-23T07:04:00;17.70;5.70
44367;DHT22;30086;57.660;12.000;2022-07-23T07:06:26;17.90;99.90
44367;DHT22;30086;57.660;12.000;2022-07-23T07:08:53;17.80;1.00
44367;DHT22;30086;57.660;12.000;2022-07-23T07:11:19;17.80;25.30
44367;DHT22;30086;57.660;12.000;2022-07-23T07:13:46;17.70;1.00
44367;DHT22;30086;57.660;12.000;2022-07-23T07:16:11;17.60;1.00
44367;DHT22;30086;57.660;12.000;2022-07-23T07:18:41;17.60;1.00
44367;DHT22;30086;57.660;12.000;2022-07-23T07:21:07;17.40;1.00
44367;DHT22;30086;57.660;12.000;2022-07-23T07:23:34;17.50;1.00
44367;DHT22;30086;57.660;12.000;2022-07-23T07:26:00;17.40;65.50
44367;DHT22;30086;57.660;12.000;2022-07-23T07:28:25;17.80;99.90
44367;DHT22;30086;57.660;12.000;2022-07-23T07:30:51;17.80;1.00
44367;DHT22;30086;57.660;12.000;2022-07-23T07:33:19;17.60;1.00
44367;DHT22;30086;57.660;12.000;2022-07-23T07:35:46;17.80;99.90
44367;DHT22;30086;57.660;12.000;2022-07-23T07:38:12;18.00;99.90
44367;DHT22;30086;57.660;12.000;2022-07-23T07:40:38;18.00;99.90
44367;DHT22;30086;57.660;12.000;2022-07-23T07:43:04;18.00;1.00
44367;DHT22;30086;57.660;12.000;2022-07-23T07:45:29;18.00;1.00
44367;DHT22;30086;57.660;12.000;2022-07-23T07:47:55;17.70;1.00
44367;DHT22;30086;57.660;12.000;2022-07-23T07:50:22;17.70;99.90
44367;DHT22;30086;57.660;12.000;2022-07-23T07:52:48;17.70;1.00
44367;DHT22;30086;57.660;12.000;2022-07-23T07:55:13;17.60;1.00
44367;DHT22;30086;57.660;12.000;2022-07-23T07:57:43;17.50;99.90
44367;DHT22;30086;57.660;12.000;2022-07-23T08:00:12;17.30;99.90
44367;DHT22;30086;57.660;12.000;2022-07-23T08:02:51;17.60;99.90
44367;DHT22;30086;57.660;12.000;2022-07-23T08:05:24;17.60;1.00
44367;DHT22;30086;57.660;12.000;2022-07-23T08:07:51;17.80;99.90
44367;DHT22;30086;57.660;12.000;2022-07-23T08:10:17;17.90;1.00
44367;DHT22;30086;57.660;12.000;2022-07-23T08:12:48;18.00;1.00
44367;DHT22;30086;57.660;12.000;2022-07-23T08:15:17;17.90;99.90
44367;DHT22;30086;57.660;12.000;2022-07-23T08:17:45;17.90;99.90
44367;DHT22;30086;57.660;12.000;2022-07-23T08:20:12;17.90;99.90
44367;DHT22;30086;57.660;12.000;2022-07-23T08:25:13;17.90;99.90
44367;DHT22;30086;57.660;12.000;2022-07-23T08:27:39;17.90;1.00
44367;DHT22;30086;57.660;12.000;2022-07-23T08:30:05;17.80;1.00
44367;DHT22;30086;57.660;12.000;2022-07-23T08:32:31;18.00;1.00
44367;DHT22;30086;57.660;12.000;2022-07-23T08:34:57;18.10;1.00
44367;DHT22;30086;57.660;12.000;2022-07-23T08:37:22;18.00;1.00
44367;DHT22;30086;57.660;12.000;2022-07-23T08:39:48;18.10;1.00
44367;DHT22;30086;57.660;12.000;2022-07-23T08:42:16;18.00;1.00
44367;DHT22;30086;57.660;12.000;2022-07-23T08:44:45;18.20;99.90
44367;DHT22;30086;57.660;12.000;2022-07-23T08:47:12;18.20;99.90
44367;DHT22;30086;57.660;12.000;2022-07-23T08:49:39;18.20;99.90
44367;DHT22;30086;57.660;12.000;2022-07-23T08:52:06;17.90;1.00
44367;DHT22;30086;57.660;12.000;2022-07-23T08:54:32;18.00;1.00
44367;DHT22;30086;57.660;12.000;2022-07-23T08:56:59;18.30;1.00
44367;DHT22;30086;57.660;12.000;2022-07-23T08:59:26;18.60;99.90
44367;DHT22;30086;57.660;12.000;2022-07-23T09:01:53;18.60;1.00
44367;DHT22;30086;57.660;12.000;2022-07-23T09:04:18;18.80;1.00
44367;DHT22;30086;57.660;12.000;2022-07-23T09:06:45;18.90;99.90
44367;DHT22;30086;57.660;12.000;2022-07-23T09:09:21;19.10;1.00
44367;DHT22;30086;57.660;12.000;2022-07-23T09:11:48;19.30;1.00
44367;DHT22;30086;57.660;12.000;2022-07-23T09:17:15;19.30;99.90
44367;DHT22;30086;57.660;12.000;2022-07-23T09:19:43;18.90;99.90
44367;DHT22;30086;57.660;12.000;2022-07-23T09:22:28;18.90;99.90
44367;DHT22;30086;57.660;12.000;2022-07-23T09:25:15;19.10;36.50
44367;DHT22;30086;57.660;12.000;2022-07-23T09:30:19;18.70;99.90
44367;DHT22;30086;57.660;12.000;2022-07-23T09:33:06;18.70;83.80
44367;DHT22;30086;57.660;12.000;2022-07-23T09:35:53;18.50;99.90
44367;DHT22;30086;57.660;12.000;2022-07-23T09:38:20;18.60;99.90
44367;DHT22;30086;57.660;12.000;2022-07-23T09:41:05;18.90;99.90
44367;DHT22;30086;57.660;12.000;2022-07-23T09:43:31;18.50;1.00
44367;DHT22;30086;57.660;12.000;2022-07-23T09:46:21;18.70;1.00
44367;DHT22;30086;57.660;12.000;2022-07-23T09:48:50;18.70;1.00
44367;DHT22;30086;57.660;12.000;2022-07-23T09:51:17;18.40;1.00
44367;DHT22;30086;57.660;12.000;2022-07-23T09:53:52;18.60;1.00
44367;DHT22;30086;57.660;12.000;2022-07-23T09:56:20;18.60;92.10
44367;DHT22;30086;57.660;12.000;2022-07-23T09:58:46;18.70;11.30
44367;DHT22;30086;57.660;12.000;2022-07-23T10:01:16;18.60;1.00
44367;DHT22;30086;57.660;12.000;2022-07-23T10:03:46;18.50;99.90
44367;DHT22;30086;57.660;12.000;2022-07-23T10:06:15;18.90;48.30
44367;DHT22;30086;57.660;12.000;2022-07-23T10:08:41;18.90;1.00
44367;DHT22;30086;57.660;12.000;2022-07-23T10:11:09;18.50;17.30
44367;DHT22;30086;57.660;12.000;2022-07-23T10:13:36;18.40;99.90
44367;DHT22;30086;57.660;12.000;2022-07-23T10:16:22;18.60;99.90
44367;DHT22;30086;57.660;12.000;2022-07-23T10:18:49;19.00;1.00
44367;DHT22;30086;57.660;12.000;2022-07-23T10:21:40;19.20;1.00
44367;DHT22;30086;57.660;12.000;2022-07-23T10:29:49;19.10;99.90
44367;DHT22;30086;57.660;12.000;2022-07-23T10:32:40;19.10;99.90
44367;DHT22;30086;57.660;12.000;2022-07-23T10:38:20;19.10;99.90
44367;DHT22;30086;57.660;12.000;2022-07-23T10:40:58;19.30;99.90
44367;DHT22;30086;57.660;12.000;2022-07-23T10:43:25;19.30;99.90
44367;DHT22;30086;57.660;12.000;2022-07-23T10:45:53;19.10;99.90
44367;DHT22;30086;57.660;12.000;2022-07-23T10:48:26;19.50;99.90
44367;DHT22;30086;57.660;12.000;2022-07-23T10:51:24;19.90;1.00
44367;DHT22;30086;57.660;12.000;2022-07-23T10:53:57;19.30;1.00
44367;DHT22;30086;57.660;12.000;2022-07-23T10:59:23;19.20;1.00
44367;DHT22;30086;57.660;12.000;2022-07-23T11:02:30;19.70;1.00
44367;DHT22;30086;57.660;12.000;2022-07-23T11:05:10;19.90;1.00
44367;DHT22;30086;57.660;12.000;2022-07-23T11:10:42;20.30;99.90
44367;DHT22;30086;57.660;12.000;2022-07-23T11:16:07;19.80;99.90
44367;DHT22;30086;57.660;12.000;2022-07-23T11:32:32;19.60;99.90
44367;DHT22;30086;57.660;12.000;2022-07-23T11:35:00;19.80;99.90
44367;DHT22;30086;57.660;12.000;2022-07-23T11:37:50;19.80;99.90
44367;DHT22;30086;57.660;12.000;2022-07-23T11:40:25;19.50;99.90
44367;DHT22;30086;57.660;12.000;2022-07-23T11:43:11;19.30;99.90
44367;DHT22;30086;57.660;12.000;2022-07-23T11:45:39;19.70;91.40
44367;DHT22;30086;57.660;12.000;2022-07-23T11:48:07;19.50;99.90
44367;DHT22;30086;57.660;12.000;2022-07-23T11:50:36;19.60;27.80
44367;DHT22;30086;57.660;12.000;2022-07-23T11:53:03;19.20;99.90
44367;DHT22;30086;57.660;12.000;2022-07-23T11:55:29;19.80;35.70
44367;DHT22;30086;57.660;12.000;2022-07-23T11:57:58;19.90;99.90
44367;DHT22;30086;57.660;12.000;2022-07-23T12:00:27;19.80;99.90
44367;DHT22;30086;57.660;12.000;2022-07-23T12:03:04;20.10;99.90
44367;DHT22;30086;57.660;12.000;2022-07-23T12:05:33;20.10;99.90
44367;DHT22;30086;57.660;12.000;2022-07-23T12:08:01;20.30;99.90
44367;DHT22;30086;57.660;12.000;2022-07-23T12:10:40;20.30;1.00
44367;DHT22;30086;57.660;12.000;2022-07-23T12:13:14;20.50;1.00
44367;DHT22;30086;57.660;12.000;2022-07-23T12:15:49;20.20;1.00
44367;DHT22;30086;57.660;12.000;2022-07-23T12:18:16;20.00;1.00
44367;DHT22;30086;57.660;12.000;2022-07-23T12:20:44;20.10;1.00
44367;DHT22;30086;57.660;12.000;2022-07-23T12:23:14;20.20;1.00
44367;DHT22;30086;57.660;12.000;2022-07-23T12:25:43;20.80;1.00
44367;DHT22;30086;57.660;12.000;2022-07-23T12:28:18;20.40;1.00
44367;DHT22;30086;57.660;12.000;2022-07-23T12:30:52;20.20;1.00
44367;DHT22;30086;57.660;12.000;2022-07-23T12:33:33;20.50;1.00
44367;DHT22;30086;57.660;12.000;2022-07-23T12:36:02;20.50;1.00
44367;DHT22;30086;57.660;12.000;2022-07-23T12:38:40;20.80;1.00
44367;DHT22;30086;57.660;12.000;2022-07-23T12:41:26;20.80;1.00
44367;DHT22;30086;57.660;12.000;2022-07-23T12:43:51;21.00;1.00
44367;DHT22;30086;57.660;12.000;2022-07-23T12:46:20;21.10;1.00
44367;DHT22;30086;57.660;12.000;2022-07-23T12:48:53;20.60;99.90
44367;DHT22;30086;57.660;12.000;2022-07-23T12:51:24;20.30;99.90
44367;DHT22;30086;57.660;12.000;2022-07-23T12:53:55;21.10;69.90
44367;DHT22;30086;57.660;12.000;2022-07-23T12:56:30;21.20;99.90
44367;DHT22;30086;57.660;12.000;2022-07-23T13:01:32;21.30;99.90
44367;DHT22;30086;57.660;12.000;2022-07-23T13:04:14;21.10;99.90
44367;DHT22;30086;57.660;12.000;2022-07-23T13:09:09;21.50;99.90
44367;DHT22;30086;57.660;12.000;2022-07-23T13:11:35;21.60;99.90
44367;DHT22;30086;57.660;12.000;2022-07-23T13:14:02;21.10;1.00
44367;DHT22;30086;57.660;12.000;2022-07-23T13:16:28;21.10;1.00
44367;DHT22;30086;57.660;12.000;2022-07-23T13:18:54;20.90;1.00
44367;DHT22;30086;57.660;12.000;2022-07-23T13:21:22;20.60;99.90
44367;DHT22;30086;57.660;12.000;2022-07-23T13:23:50;21.00;99.90
44367;DHT22;30086;57.660;12.000;2022-07-23T13:26:21;21.10;99.90
44367;DHT22;30086;57.660;12.000;2022-07-23T13:28:47;20.60;1.00
44367;DHT22;30086;57.660;12.000;2022-07-23T13:31:25;20.70;99.90
44367;DHT22;30086;57.660;12.000;2022-07-23T13:33:52;20.60;99.90
44367;DHT22;30086;57.660;12.000;2022-07-23T13:36:19;21.00;99.90
44367;DHT22;30086;57.660;12.000;2022-07-23T13:38:45;20.60;1.00
44367;DHT22;30086;57.660;12.000;2022-07-23T13:41:11;20.50;99.90
44367;DHT22;30086;57.660;12.000;2022-07-23T13:43:37;20.20;99.90
44367;DHT22;30086;57.660;12.000;2022-07-23T13:46:02;20.10;99.90
44367;DHT22;30086;57.660;12.000;2022-07-23T13:48:29;20.50;99.90
44367;DHT22;30086;57.660;12.000;2022-07-23T13:50:55;20.40;99.90
44367;DHT22;30086;57.660;12.000;2022-07-23T13:53:23;20.50;99.90
44367;DHT22;30086;57.660;12.000;2022-07-23T13:55:52;20.40;99.90
44367;DHT22;30086;57.660;12.000;2022-07-23T13:58:18;20.40;99.90
44367;DHT22;30086;57.660;12.000;2022-07-23T14:00:47;20.20;99.90
44367;DHT22;30086;57.660;12.000;2022-07-23T14:03:13;20.50;99.90
44367;DHT22;30086;57.660;12.000;2022-07-23T14:05:39;20.30;99.90
44367;DHT22;30086;57.660;12.000;2022-07-23T14:08:05;20.40;99.90
44367;DHT22;30086;57.660;12.000;2022-07-23T14:10:31;20.00;99.90
44367;DHT22;30086;57.660;12.000;2022-07-23T14:12:57;20.00;99.90
44367;DHT22;30086;57.660;12.000;2022-07-23T14:15:27;19.80;99.90
44367;DHT22;30086;57.660;12.000;2022-07-23T14:17:56;19.80;41.70
44367;DHT22;30086;57.660;12.000;2022-07-23T14:20:22;19.70;1.00
44367;DHT22;30086;57.660;12.000;2022-07-23T14:23:03;20.00;1.00
44367;DHT22;30086;57.660;12.000;2022-07-23T14:25:29;20.10;1.00
44367;DHT22;30086;57.660;12.000;2022-07-23T14:27:55;20.10;1.00
44367;DHT22;30086;57.660;12.000;2022-07-23T14:30:22;19.70;1.00
44367;DHT22;30086;57.660;12.000;2022-07-23T14:32:50;19.90;1.00
44367;DHT22;30086;57.660;12.000;2022-07-23T14:35:15;19.80;1.00
44367;DHT22;30086;57.660;12.000;2022-07-23T14:37:41;19.80;1.00
44367;DHT22;30086;57.660;12.000;2022-07-23T14:40:07;19.60;1.00
44367;DHT22;30086;57.660;12.000;2022-07-23T14:42:33;19.70;1.00
44367;DHT22;30086;57.660;12.000;2022-07-23T14:44:58;19.60;1.00
44367;DHT22;30086;57.660;12.000;2022-07-23T14:47:24;19.80;99.90
44367;DHT22;30086;57.660;12.000;2022-07-23T14:49:50;19.90;1.00
44367;DHT22;30086;57.660;12.000;2022-07-23T14:52:15;19.80;1.00
44367;DHT22;30086;57.660;12.000;2022-07-23T14:54:43;19.90;1.00
44367;DHT22;30086;57.660;12.000;2022-07-23T14:57:09;20.10;1.00
44367;DHT22;30086;57.660;12.000;2022-07-23T14:59:37;20.40;1.00
44367;DHT22;30086;57.660;12.000;2022-07-23T15:02:04;20.10;1.00
44367;DHT22;30086;57.660;12.000;2022-07-23T15:04:29;20.70;1.00
44367;DHT22;30086;57.660;12.000;2022-07-23T15:06:55;20.60;99.90
44367;DHT22;30086;57.660;12.000;2022-07-23T15:09:21;20.80;99.90
44367;DHT22;30086;57.660;12.000;2022-07-23T15:11:47;20.80;99.90
44367;DHT22;30086;57.660;12.000;2022-07-23T15:14:13;20.90;99.90
44367;DHT22;30086;57.660;12.000;2022-07-23T15:16:38;20.70;99.90
44367;DHT22;30086;57.660;12.000;2022-07-23T15:19:05;20.90;1.00
44367;DHT22;30086;57.660;12.000;2022-07-23T15:21:33;21.30;1.00
44367;DHT22;30086;57.660;12.000;2022-07-23T15:24:00;21.00;1.00
44367;DHT22;30086;57.660;12.000;2022-07-23T15:26:28;20.70;1.00
44367;DHT22;30086;57.660;12.000;2022-07-23T15:28:54;20.50;1.00
44367;DHT22;30086;57.660;12.000;2022-07-23T15:31:22;20.50;1.00
44367;DHT22;30086;57.660;12.000;2022-07-23T15:33:49;20.60;1.00
44367;DHT22;30086;57.660;12.000;2022-07-23T15:36:18;20.40;1.00
44367;DHT22;30086;57.660;12.000;2022-07-23T15:38:45;20.40;1.00
44367;DHT22;30086;57.660;12.000;2022-07-23T15:41:11;20.40;1.00
44367;DHT22;30086;57.660;12.000;2022-07-23T15:43:37;20.80;1.00
44367;DHT22;30086;57.660;12.000;2022-07-23T15:46:04;21.10;1.00
44367;DHT22;30086;57.660;12.000;2022-07-23T15:48:30;21.40;1.00
44367;DHT22;30086;57.660;12.000;2022-07-23T15:50:56;21.30;1.00
44367;DHT22;30086;57.660;12.000;2022-07-23T15:53:23;21.60;1.00
44367;DHT22;30086;57.660;12.000;2022-07-23T15:55:52;21.20;1.00
44367;DHT22;30086;57.660;12.000;2022-07-23T15:58:18;21.20;1.00
44367;DHT22;30086;57.660;12.000;2022-07-23T16:00:44;21.60;1.00
44367;DHT22;30086;57.660;12.000;2022-07-23T16:03:10;22.80;1.00
44367;DHT22;30086;57.660;12.000;2022-07-23T16:05:35;22.50;24.30
44367;DHT22;30086;57.660;12.000;2022-07-23T16:08:02;22.40;99.90